Kaisei Maru — JD3114 — position and weather

sailwx.info

Track history (hours):
 
Tides and Currents Weather Stations Pressure Air Temp Water Temp Dewpoint Dewpoint Depression Visibility Wind Speed Wind Dir Waves Ship Positions

Kaisei Maru

Last reported at 2016-Feb-12 08:33 UTC. Time now 2016-Feb-14 17:01 UTC.
Position N 35°15' E 139°46'.

Length 52 m; draft 3.9 m.

Type: Tanker. MMSI: 431001837.

Date/timePositionNaut miles runAvg speedWind from/ knotsBaromVisibWave heightAir tempDewpointWater temp
2016-Feb-12 08:33N 35°15' E 139°46'9 9.2
2016-Feb-12 07:33N 35°23' E 139°42'6 5.9
2016-Feb-12 06:33N 35°29' E 139°40'0 0.0
2016-Feb-12 05:33N 35°29' E 139°40'0 0.0
2016-Feb-12 04:33N 35°29' E 139°40'0 0.0
2016-Feb-12 03:33N 35°29' E 139°40'0 0.0
2016-Feb-12 02:33N 35°29' E 139°40'0 0.0
2016-Feb-12 01:33N 35°29' E 139°40'0 0.0
2016-Feb-12 00:33N 35°29' E 139°40'0 0.0
2016-Feb-11 23:33N 35°29' E 139°40'3 2.6
2016-Feb-11 22:33N 35°27' E 139°42'0 0.0
2016-Feb-11 21:33N 35°27' E 139°42'0 0.0
2016-Feb-11 20:33N 35°27' E 139°42'0 0.0
2016-Feb-11 19:33N 35°27' E 139°42'0 0.0
2016-Feb-11 18:33N 35°27' E 139°42'0 0.0
2016-Feb-11 17:33N 35°27' E 139°42'0 0.0
2016-Feb-11 16:33N 35°27' E 139°42'0 0.0
2016-Feb-11 15:33N 35°27' E 139°42'0 0.0
2016-Feb-11 14:33N 35°27' E 139°42'0 0.0
2016-Feb-11 13:33N 35°27' E 139°42'0 0.0
2016-Feb-11 12:33N 35°27' E 139°42'0 0.0
2016-Feb-11 11:33N 35°27' E 139°42'0 0.0
2016-Feb-11 10:33N 35°27' E 139°42'0 0.0
2016-Feb-11 09:33N 35°27' E 139°42'5 4.7
2016-Feb-11 08:33N 35°23' E 139°46'1010.2
2016-Feb-11 07:33N 35°13' E 139°47'245 8.9
2016-Feb-10 04:07N 34°01' E 135°02'711.3
2016-Feb-10 03:32N 34°08' E 135°02'1211.0
2016-Feb-10 02:28N 34°19' E 135°05'1010.8
2016-Feb-10 01:30N 34°25' E 135°16'3 1.5
2016-Feb-09 23:32N 34°26' E 135°19'5 5.4
2016-Feb-09 22:33N 34°31' E 135°18'10 9.8
2016-Feb-09 21:33N 34°40' E 135°15'2 2.2
2016-Feb-09 20:33N 34°41' E 135°12'0 0.0
2016-Feb-09 19:33N 34°41' E 135°12'0 0.0
2016-Feb-09 18:33N 34°41' E 135°12'0 0.0
2016-Feb-09 17:33N 34°41' E 135°12'0 0.0
2016-Feb-09 16:33N 34°41' E 135°12'0 0.0
2016-Feb-09 15:33N 34°41' E 135°12'0 0.0
2016-Feb-09 14:33N 34°41' E 135°12'0 0.0
2016-Feb-09 13:33N 34°41' E 135°12'0 0.0
2016-Feb-09 12:33N 34°41' E 135°12'0 0.0
2016-Feb-09 11:33N 34°41' E 135°12'0 0.0
2016-Feb-09 10:33N 34°41' E 135°12'0 0.0
2016-Feb-09 09:33N 34°41' E 135°12'0 0.0
2016-Feb-09 08:33N 34°41' E 135°12'0 0.0
2016-Feb-09 07:33N 34°41' E 135°12'0 0.0
2016-Feb-09 06:33N 34°41' E 135°12'5 5.0
2016-Feb-09 05:33N 34°37' E 135°09'6 1.1
2016-Feb-08 23:33N 34°37' E 135°02'9 9.2
2016-Feb-08 22:33N 34°41' E 135°12'1 0.6
2016-Feb-08 21:33N 34°41' E 135°12'0 0.0
2016-Feb-08 20:33N 34°41' E 135°12'0 0.0
2016-Feb-08 19:34N 34°41' E 135°12'0 0.0
2016-Feb-08 18:33N 34°41' E 135°12'0 0.0
2016-Feb-08 17:33N 34°41' E 135°12'0 0.0
2016-Feb-08 16:33N 34°41' E 135°12'0 0.0
2016-Feb-08 15:33N 34°41' E 135°12'0 0.0
2016-Feb-08 14:33N 34°41' E 135°12'0 0.0
2016-Feb-08 13:33N 34°41' E 135°12'0 0.0
2016-Feb-08 12:33N 34°41' E 135°12'0 0.0
2016-Feb-08 11:33N 34°41' E 135°12'0 0.0
2016-Feb-08 10:33N 34°41' E 135°12'0 0.0
2016-Feb-08 09:33N 34°41' E 135°12'0 0.0
2016-Feb-08 08:33N 34°41' E 135°12'0 0.0
2016-Feb-08 07:33N 34°41' E 135°12'0 0.0
2016-Feb-08 06:33N 34°41' E 135°12'0 0.0
2016-Feb-08 05:34N 34°41' E 135°12'0 0.0
2016-Feb-08 04:33N 34°41' E 135°12'0 0.0
2016-Feb-08 03:33N 34°41' E 135°12'0 0.0
2016-Feb-08 02:33N 34°41' E 135°12'9 8.8
2016-Feb-08 01:33N 34°33' E 135°17'8 3.3
2016-Feb-07 23:12N 34°26' E 135°19'5 7.7
2016-Feb-07 22:32N 34°31' E 135°18'1010.2
2016-Feb-07 21:33N 34°40' E 135°15'2 2.1
2016-Feb-07 20:33N 34°41' E 135°12'0 0.0
2016-Feb-07 19:33N 34°41' E 135°12'0 0.0
2016-Feb-07 18:33N 34°41' E 135°12'0 0.0
2016-Feb-07 17:33N 34°41' E 135°12'0 0.0
2016-Feb-07 16:34N 34°41' E 135°12'0 0.0
2016-Feb-07 15:33N 34°41' E 135°12'0 0.0
2016-Feb-07 14:33N 34°41' E 135°12'0 0.0
2016-Feb-07 13:33N 34°41' E 135°12'0 0.0
2016-Feb-07 12:33N 34°41' E 135°12'0 0.0
2016-Feb-07 11:33N 34°41' E 135°12'0 0.0
2016-Feb-07 10:33N 34°41' E 135°12'0 0.0
2016-Feb-07 09:33N 34°41' E 135°12'0 0.0
2016-Feb-07 08:33N 34°41' E 135°12'0 0.0
2016-Feb-07 07:33N 34°41' E 135°12'0 0.0
2016-Feb-07 06:33N 34°41' E 135°12'0 0.0
2016-Feb-07 05:33N 34°41' E 135°12'0 0.0
2016-Feb-07 04:33N 34°41' E 135°12'0 0.0
2016-Feb-07 03:33N 34°41' E 135°12'0 0.0
2016-Feb-07 02:33N 34°41' E 135°12'0 0.0
2016-Feb-07 01:33N 34°41' E 135°12'0 0.0
2016-Feb-07 00:33N 34°41' E 135°12'0 0.0
2016-Feb-06 23:33N 34°41' E 135°12'0 0.0
2016-Feb-06 22:33N 34°41' E 135°12'0 0.0
2016-Feb-06 21:33N 34°41' E 135°12'0 0.0
2016-Feb-06 20:33N 34°41' E 135°12'0 0.0
2016-Feb-06 19:33N 34°41' E 135°12'0 0.0
2016-Feb-06 18:33N 34°41' E 135°12'0 0.0
2016-Feb-06 17:33N 34°41' E 135°12'0 0.0
2016-Feb-06 16:33N 34°41' E 135°12'0 0.0
2016-Feb-06 15:33N 34°41' E 135°12'0 0.0
2016-Feb-06 14:33N 34°41' E 135°12'0 0.0
2016-Feb-06 13:33N 34°41' E 135°12'0 0.0
2016-Feb-06 12:33N 34°41' E 135°12'0 0.0
2016-Feb-06 11:33N 34°41' E 135°12'0 0.0
2016-Feb-06 10:33N 34°41' E 135°12'0 0.0
2016-Feb-06 09:33N 34°41' E 135°12'0 0.0
2016-Feb-06 08:33N 34°41' E 135°12'2 1.7
2016-Feb-06 07:33N 34°40' E 135°11'1310.2
2016-Feb-06 06:19N 34°36' E 134°56'233 5.2
2016-Feb-04 09:08N 33°48' E 130°21'610.4
2016-Feb-04 08:32N 33°44' E 130°16'  
Track history (hours):
 
Tides and Currents Weather Stations Pressure Air Temp Water Temp Dewpoint Dewpoint Depression Visibility Wind Speed Wind Dir Waves Ship Positions

Kaisei Maru

Last reported at 2016-Feb-12 08:33 UTC. Time now 2016-Feb-14 17:01 UTC.
Position N 35°15' E 139°46'.

Length 52 m; draft 3.9 m.

Type: Tanker. MMSI: 431001837.

Date/timePositionNaut miles runAvg speedWind from/ knotsBaromVisibWave heightAir tempDewpointWater temp
2016-Feb-12 08:33N 35°15' E 139°46'9 9.2
2016-Feb-12 07:33N 35°23' E 139°42'6 5.9
2016-Feb-12 06:33N 35°29' E 139°40'0 0.0
2016-Feb-12 05:33N 35°29' E 139°40'0 0.0
2016-Feb-12 04:33N 35°29' E 139°40'0 0.0
2016-Feb-12 03:33N 35°29' E 139°40'0 0.0
2016-Feb-12 02:33N 35°29' E 139°40'0 0.0
2016-Feb-12 01:33N 35°29' E 139°40'0 0.0
2016-Feb-12 00:33N 35°29' E 139°40'0 0.0
2016-Feb-11 23:33N 35°29' E 139°40'3 2.6
2016-Feb-11 22:33N 35°27' E 139°42'0 0.0
2016-Feb-11 21:33N 35°27' E 139°42'0 0.0
2016-Feb-11 20:33N 35°27' E 139°42'0 0.0
2016-Feb-11 19:33N 35°27' E 139°42'0 0.0
2016-Feb-11 18:33N 35°27' E 139°42'0 0.0
2016-Feb-11 17:33N 35°27' E 139°42'0 0.0
2016-Feb-11 16:33N 35°27' E 139°42'0 0.0
2016-Feb-11 15:33N 35°27' E 139°42'0 0.0
2016-Feb-11 14:33N 35°27' E 139°42'0 0.0
2016-Feb-11 13:33N 35°27' E 139°42'0 0.0
2016-Feb-11 12:33N 35°27' E 139°42'0 0.0
2016-Feb-11 11:33N 35°27' E 139°42'0 0.0
2016-Feb-11 10:33N 35°27' E 139°42'0 0.0
2016-Feb-11 09:33N 35°27' E 139°42'5 4.7
2016-Feb-11 08:33N 35°23' E 139°46'1010.2
2016-Feb-11 07:33N 35°13' E 139°47'245 8.9
2016-Feb-10 04:07N 34°01' E 135°02'711.3
2016-Feb-10 03:32N 34°08' E 135°02'1211.0
2016-Feb-10 02:28N 34°19' E 135°05'1010.8
2016-Feb-10 01:30N 34°25' E 135°16'3 1.5
2016-Feb-09 23:32N 34°26' E 135°19'5 5.4
2016-Feb-09 22:33N 34°31' E 135°18'10 9.8
2016-Feb-09 21:33N 34°40' E 135°15'2 2.2
2016-Feb-09 20:33N 34°41' E 135°12'0 0.0
2016-Feb-09 19:33N 34°41' E 135°12'0 0.0
2016-Feb-09 18:33N 34°41' E 135°12'0 0.0
2016-Feb-09 17:33N 34°41' E 135°12'0 0.0
2016-Feb-09 16:33N 34°41' E 135°12'0 0.0
2016-Feb-09 15:33N 34°41' E 135°12'0 0.0
2016-Feb-09 14:33N 34°41' E 135°12'0 0.0
2016-Feb-09 13:33N 34°41' E 135°12'0 0.0
2016-Feb-09 12:33N 34°41' E 135°12'0 0.0
2016-Feb-09 11:33N 34°41' E 135°12'0 0.0
2016-Feb-09 10:33N 34°41' E 135°12'0 0.0
2016-Feb-09 09:33N 34°41' E 135°12'0 0.0
2016-Feb-09 08:33N 34°41' E 135°12'0 0.0
2016-Feb-09 07:33N 34°41' E 135°12'0 0.0
2016-Feb-09 06:33N 34°41' E 135°12'5 5.0
2016-Feb-09 05:33N 34°37' E 135°09'6 1.1
2016-Feb-08 23:33N 34°37' E 135°02'9 9.2
2016-Feb-08 22:33N 34°41' E 135°12'1 0.6
2016-Feb-08 21:33N 34°41' E 135°12'0 0.0
2016-Feb-08 20:33N 34°41' E 135°12'0 0.0
2016-Feb-08 19:34N 34°41' E 135°12'0 0.0
2016-Feb-08 18:33N 34°41' E 135°12'0 0.0
2016-Feb-08 17:33N 34°41' E 135°12'0 0.0
2016-Feb-08 16:33N 34°41' E 135°12'0 0.0
2016-Feb-08 15:33N 34°41' E 135°12'0 0.0
2016-Feb-08 14:33N 34°41' E 135°12'0 0.0
2016-Feb-08 13:33N 34°41' E 135°12'0 0.0
2016-Feb-08 12:33N 34°41' E 135°12'0 0.0
2016-Feb-08 11:33N 34°41' E 135°12'0 0.0
2016-Feb-08 10:33N 34°41' E 135°12'0 0.0
2016-Feb-08 09:33N 34°41' E 135°12'0 0.0
2016-Feb-08 08:33N 34°41' E 135°12'0 0.0
2016-Feb-08 07:33N 34°41' E 135°12'0 0.0
2016-Feb-08 06:33N 34°41' E 135°12'0 0.0
2016-Feb-08 05:34N 34°41' E 135°12'0 0.0
2016-Feb-08 04:33N 34°41' E 135°12'0 0.0
2016-Feb-08 03:33N 34°41' E 135°12'0 0.0
2016-Feb-08 02:33N 34°41' E 135°12'9 8.8
2016-Feb-08 01:33N 34°33' E 135°17'8 3.3
2016-Feb-07 23:12N 34°26' E 135°19'5 7.7
2016-Feb-07 22:32N 34°31' E 135°18'1010.2
2016-Feb-07 21:33N 34°40' E 135°15'2 2.1
2016-Feb-07 20:33N 34°41' E 135°12'0 0.0
2016-Feb-07 19:33N 34°41' E 135°12'0 0.0
2016-Feb-07 18:33N 34°41' E 135°12'0 0.0
2016-Feb-07 17:33N 34°41' E 135°12'0 0.0
2016-Feb-07 16:34N 34°41' E 135°12'0 0.0
2016-Feb-07 15:33N 34°41' E 135°12'0 0.0
2016-Feb-07 14:33N 34°41' E 135°12'0 0.0
2016-Feb-07 13:33N 34°41' E 135°12'0 0.0
2016-Feb-07 12:33N 34°41' E 135°12'0 0.0
2016-Feb-07 11:33N 34°41' E 135°12'0 0.0
2016-Feb-07 10:33N 34°41' E 135°12'0 0.0
2016-Feb-07 09:33N 34°41' E 135°12'0 0.0
2016-Feb-07 08:33N 34°41' E 135°12'0 0.0
2016-Feb-07 07:33N 34°41' E 135°12'0 0.0
2016-Feb-07 06:33N 34°41' E 135°12'0 0.0
2016-Feb-07 05:33N 34°41' E 135°12'0 0.0
2016-Feb-07 04:33N 34°41' E 135°12'0 0.0
2016-Feb-07 03:33N 34°41' E 135°12'0 0.0
2016-Feb-07 02:33N 34°41' E 135°12'0 0.0
2016-Feb-07 01:33N 34°41' E 135°12'0 0.0
2016-Feb-07 00:33N 34°41' E 135°12'0 0.0
2016-Feb-06 23:33N 34°41' E 135°12'0 0.0
2016-Feb-06 22:33N 34°41' E 135°12'0 0.0
2016-Feb-06 21:33N 34°41' E 135°12'0 0.0
2016-Feb-06 20:33N 34°41' E 135°12'0 0.0
2016-Feb-06 19:33N 34°41' E 135°12'0 0.0
2016-Feb-06 18:33N 34°41' E 135°12'0 0.0
2016-Feb-06 17:33N 34°41' E 135°12'0 0.0
2016-Feb-06 16:33N 34°41' E 135°12'0 0.0
2016-Feb-06 15:33N 34°41' E 135°12'0 0.0
2016-Feb-06 14:33N 34°41' E 135°12'0 0.0
2016-Feb-06 13:33N 34°41' E 135°12'0 0.0
2016-Feb-06 12:33N 34°41' E 135°12'0 0.0
2016-Feb-06 11:33N 34°41' E 135°12'0 0.0
2016-Feb-06 10:33N 34°41' E 135°12'0 0.0
2016-Feb-06 09:33N 34°41' E 135°12'0 0.0
2016-Feb-06 08:33N 34°41' E 135°12'2 1.7
2016-Feb-06 07:33N 34°40' E 135°11'1310.2
2016-Feb-06 06:19N 34°36' E 134°56'233 5.2
2016-Feb-04 09:08N 33°48' E 130°21'610.4
2016-Feb-04 08:32N 33°44' E 130°16'  

Dump ship's entire track history